Time;durP1;ratioP1;P1;durP2;ratioP2;P2;SDS_P1;SDS_P2;PMS_P1;PMS_P2;Temp;Humidity;BMP_temperature;BMP_pressure;BME280_temperature;BME280_humidity;BME280_pressure;Samples;Min_cycle;Max_cycle;Signal;HPM_P1;HPM_P2
2022/07/11 00:00:54;;;;;;;6.18;4.28;;;;;;;19.23;61.01;102324.63;5085949;28;20067;-75
2022/07/11 00:03:19;;;;;;;10.00;4.93;;;;;;;19.19;61.22;102326.31;5092511;28;20021;-75
2022/07/11 00:05:45;;;;;;;7.95;4.57;;;;;;;19.19;61.23;102329.13;5094411;28;20459;-75
2022/07/11 00:08:10;;;;;;;6.90;4.88;;;;;;;19.17;61.62;102322.91;5093191;28;20039;-75
2022/07/11 00:10:35;;;;;;;8.80;4.88;;;;;;;19.19;61.26;102331.94;5083776;28;20537;-75
2022/07/11 00:13:01;;;;;;;7.93;4.97;;;;;;;19.18;61.69;102327.44;5075482;28;20036;-75
2022/07/11 00:15:26;;;;;;;7.38;5.07;;;;;;;19.11;61.69;102327.69;5091284;28;20043;-75
2022/07/11 00:17:51;;;;;;;8.07;5.28;;;;;;;19.12;61.84;102323.72;5098011;28;20028;-75
2022/07/11 00:20:16;;;;;;;9.95;5.82;;;;;;;19.06;62.02;102324.84;5096975;28;20020;-75
2022/07/11 00:22:42;;;;;;;7.03;5.30;;;;;;;19.04;62.06;102314.97;5090787;28;20039;-75
2022/07/11 00:25:08;;;;;;;11.75;5.78;;;;;;;19.04;62.22;102315.81;5093640;28;20032;-75
2022/07/11 00:27:33;;;;;;;9.75;5.97;;;;;;;19.00;62.36;102311.88;5090112;28;20032;-75
2022/07/11 00:29:58;;;;;;;8.30;5.85;;;;;;;19.00;62.09;102311.03;5089858;28;20050;-75
2022/07/11 00:32:24;;;;;;;8.23;5.68;;;;;;;18.95;62.32;102305.38;5089613;28;20024;-75
2022/07/11 00:34:49;;;;;;;9.88;5.78;;;;;;;18.96;61.92;102307.91;5082102;28;20031;-75
2022/07/11 00:37:14;;;;;;;7.97;5.13;;;;;;;18.91;62.51;102295.81;5088345;28;20178;-75
2022/07/11 00:39:39;;;;;;;11.50;5.63;;;;;;;18.92;62.58;102297.47;5092744;28;20153;-75
2022/07/11 00:42:05;;;;;;;9.13;5.50;;;;;;;18.90;62.46;102300.56;5090171;28;20475;-75
2022/07/11 00:44:30;;;;;;;11.63;5.90;;;;;;;18.88;62.78;102306.47;5094309;28;20044;-74
2022/07/11 00:46:55;;;;;;;8.55;5.65;;;;;;;18.88;62.75;102303.66;5089169;28;20043;-75
2022/07/11 00:49:21;;;;;;;8.75;5.63;;;;;;;18.83;62.91;102306.44;5080845;28;20179;-75
2022/07/11 00:51:48;;;;;;;12.57;6.05;;;;;;;18.79;62.91;102307.28;5091566;28;20765;-75
2022/07/11 00:54:14;;;;;;;8.90;6.10;;;;;;;18.79;62.98;102299.69;5098581;28;20115;-75
2022/07/11 00:56:40;;;;;;;9.10;5.65;;;;;;;18.78;63.14;102303.59;5093564;28;20059;-75
2022/07/11 00:59:08;;;;;;;9.88;5.95;;;;;;;18.75;63.15;102300.50;5091910;28;20039;-75
2022/07/11 01:01:37;;;;;;;8.55;6.40;;;;;;;18.71;63.30;102299.34;5078076;28;20094;-75
2022/07/11 01:04:03;;;;;;;9.05;5.78;;;;;;;18.73;63.23;102295.13;5084087;28;20024;-75
2022/07/11 01:06:29;;;;;;;10.43;6.57;;;;;;;18.68;63.38;102300.72;5102141;28;20054;-75
2022/07/11 01:08:54;;;;;;;12.63;6.85;;;;;;;18.65;63.15;102298.44;5089795;28;20123;-75
2022/07/11 01:11:20;;;;;;;12.48;6.28;;;;;;;18.66;63.51;102297.31;5085716;28;20562;-75
2022/07/11 01:13:46;;;;;;;17.30;7.03;;;;;;;18.59;63.67;102302.34;5095092;28;20194;-75
2022/07/11 01:16:12;;;;;;;10.98;6.75;;;;;;;18.61;63.78;102300.94;5094802;28;20066;-75
2022/07/11 01:18:39;;;;;;;12.45;7.18;;;;;;;18.55;63.87;102298.34;5086038;28;20058;-75
2022/07/11 01:21:16;;;;;;;12.52;7.03;;;;;;;18.58;63.92;102303.44;5092161;28;20024;-75
2022/07/11 01:23:42;;;;;;;14.50;6.78;;;;;;;18.59;63.85;102296.72;5100273;28;20044;-75
2022/07/11 01:26:07;;;;;;;10.85;6.95;;;;;;;18.53;63.97;102289.38;5083667;28;20032;-75
2022/07/11 01:28:32;;;;;;;10.35;7.03;;;;;;;18.58;63.88;102292.19;5088149;28;20044;-75
2022/07/11 01:30:57;;;;;;;9.93;6.47;;;;;;;18.49;63.96;102289.06;5090271;28;20020;-75
2022/07/11 01:33:23;;;;;;;11.88;7.32;;;;;;;18.49;64.04;102291.03;5095317;28;20410;-75
2022/07/11 01:35:48;;;;;;;9.02;6.70;;;;;;;18.46;64.12;102294.38;5089445;28;20042;-75
2022/07/11 01:38:13;;;;;;;13.52;6.75;;;;;;;18.45;64.19;102289.88;5092473;28;20040;-75
2022/07/11 01:40:38;;;;;;;11.18;7.38;;;;;;;18.45;64.20;102293.53;5085490;28;20024;-75
2022/07/11 01:43:04;;;;;;;13.45;7.30;;;;;;;18.42;64.16;102282.81;5077219;28;20033;-75
2022/07/11 01:45:29;;;;;;;11.55;7.35;;;;;;;18.37;64.48;102283.63;5092596;28;20077;-75
2022/07/11 01:47:54;;;;;;;8.00;6.90;;;;;;;18.37;64.69;102294.88;5092575;28;20051;-75
2022/07/11 01:50:20;;;;;;;10.90;6.95;;;;;;;18.36;64.61;102296.00;5087510;28;20020;-75
2022/07/11 01:52:45;;;;;;;10.90;7.35;;;;;;;18.36;64.47;102301.63;5097332;28;20081;-75
2022/07/11 01:55:12;;;;;;;10.40;6.78;;;;;;;18.32;64.14;102303.28;5080921;28;20020;-75
2022/07/11 01:57:38;;;;;;;9.73;6.75;;;;;;;18.29;64.59;102306.63;5089968;28;20199;-75
2022/07/11 02:00:05;;;;;;;11.25;7.18;;;;;;;18.27;64.62;102303.22;5092560;28;20740;-76
2022/07/11 02:02:30;;;;;;;10.43;7.13;;;;;;;18.24;64.86;102308.56;5086006;28;20606;-75
2022/07/11 02:04:55;;;;;;;10.48;7.97;;;;;;;18.20;64.68;102316.69;5077630;28;20044;-75
2022/07/11 02:08:11;;;;;;;13.20;7.70;;;;;;;18.23;64.88;102310.50;5089608;28;20088;-76
2022/07/11 02:10:06;;;;;;;9.10;7.05;;;;;;;18.24;64.84;102309.41;5077212;28;20044;-75
2022/07/11 02:12:31;;;;;;;10.52;8.05;;;;;;;18.18;65.00;102304.00;5085849;28;20024;-76
2022/07/11 02:14:57;;;;;;;10.95;7.32;;;;;;;18.21;64.86;102301.50;5093788;28;20103;-75
2022/07/11 02:17:22;;;;;;;13.23;8.57;;;;;;;18.19;65.09;102295.31;5094689;28;20486;-76
2022/07/11 02:19:47;;;;;;;9.90;7.40;;;;;;;18.17;65.08;102297.56;5092737;28;20035;-75
2022/07/11 02:22:15;;;;;;;14.05;8.25;;;;;;;18.17;65.33;102300.38;5085108;28;20036;-76
2022/07/11 02:24:40;;;;;;;12.40;8.25;;;;;;;18.16;64.93;102298.69;5096743;28;20020;-75
2022/07/11 02:27:05;;;;;;;11.88;8.52;;;;;;;18.09;65.24;102295.25;5087817;28;20455;-75
2022/07/11 02:29:31;;;;;;;11.23;8.43;;;;;;;18.08;65.36;102296.38;5102387;28;20059;-75
2022/07/11 02:31:56;;;;;;;10.38;7.40;;;;;;;18.02;65.71;102295.47;5090567;28;20024;-75
2022/07/11 02:34:21;;;;;;;12.55;8.05;;;;;;;18.01;65.76;102292.94;5084045;28;20034;-75
2022/07/11 02:36:47;;;;;;;11.85;8.95;;;;;;;18.02;65.50;102298.28;5083302;28;20028;-75
2022/07/11 02:39:12;;;;;;;11.48;7.97;;;;;;;18.01;65.74;102290.97;5091381;28;20057;-75
2022/07/11 02:41:37;;;;;;;14.02;8.57;;;;;;;18.00;65.71;102292.09;5089781;28;20038;-75
2022/07/11 02:44:03;;;;;;;11.85;8.43;;;;;;;18.02;65.81;102289.00;5085163;28;20097;-75
2022/07/11 02:46:28;;;;;;;11.30;8.05;;;;;;;18.00;65.88;102286.47;5088141;28;20064;-75
2022/07/11 02:48:53;;;;;;;11.95;8.95;;;;;;;17.99;66.13;102292.34;5093237;28;20028;-76
2022/07/11 02:51:19;;;;;;;13.35;8.50;;;;;;;17.98;66.09;102301.88;5091751;28;20028;-76
2022/07/11 02:53:44;;;;;;;11.43;8.70;;;;;;;17.93;66.27;102296.22;5079818;28;20455;-76
2022/07/11 02:56:09;;;;;;;11.55;8.40;;;;;;;17.98;66.06;102296.28;5078037;28;20146;-76
2022/07/11 02:58:34;;;;;;;16.67;9.15;;;;;;;17.97;66.21;102297.38;5094296;28;20042;-75
2022/07/11 03:01:00;;;;;;;12.98;8.52;;;;;;;17.98;66.42;102291.50;5092987;28;20081;-75
2022/07/11 03:03:25;;;;;;;15.43;8.77;;;;;;;17.94;66.54;102290.34;5080116;28;20047;-76
2022/07/11 03:05:50;;;;;;;13.45;8.93;;;;;;;17.95;66.40;102292.03;5089147;28;20499;-76
2022/07/11 03:08:15;;;;;;;11.77;8.63;;;;;;;17.96;66.67;102288.13;5089884;28;20502;-75
2022/07/11 03:10:41;;;;;;;14.57;8.70;;;;;;;17.91;66.76;102286.09;5087531;28;20038;-76
2022/07/11 03:13:06;;;;;;;13.45;9.15;;;;;;;17.90;66.92;102284.41;5087878;28;20021;-75
2022/07/11 03:15:31;;;;;;;18.92;9.20;;;;;;;17.94;66.87;102289.50;5087161;28;20118;-76
2022/07/11 03:17:57;;;;;;;11.95;8.90;;;;;;;17.95;66.67;102294.00;5091363;28;20032;-75
2022/07/11 03:20:22;;;;;;;13.63;9.00;;;;;;;17.97;66.60;102295.44;5082483;28;20025;-76
2022/07/11 03:22:47;;;;;;;12.00;9.23;;;;;;;17.96;66.96;102298.47;5083167;28;20034;-75
2022/07/11 03:25:12;;;;;;;16.75;9.52;;;;;;;17.96;66.88;102295.69;5090703;28;20121;-76
2022/07/11 03:27:38;;;;;;;17.92;9.90;;;;;;;17.91;67.18;102294.50;5092925;28;20046;-75
2022/07/11 03:30:03;;;;;;;15.52;9.27;;;;;;;17.93;67.28;102294.28;5096989;28;20103;-75
2022/07/11 03:32:28;;;;;;;14.18;9.63;;;;;;;17.91;67.30;102302.09;5089689;28;20426;-75
2022/07/11 03:37:37;;;;;;;11.80;8.35;;;;;;;17.85;67.24;102309.66;5077872;28;20113;-75
2022/07/11 03:40:03;;;;;;;11.18;8.40;;;;;;;17.93;66.82;102308.31;5090424;28;20056;-75
2022/07/11 03:42:29;;;;;;;14.35;9.07;;;;;;;17.84;67.69;102302.34;5087892;28;20110;-75
2022/07/11 03:44:54;;;;;;;14.40;9.13;;;;;;;17.86;67.38;102304.88;5096708;28;20028;-75
2022/07/11 03:47:20;;;;;;;16.30;9.45;;;;;;;17.86;67.33;102305.72;5102685;28;20020;-76
2022/07/11 03:49:46;;;;;;;15.00;8.63;;;;;;;17.85;67.31;102306.84;5092720;28;20028;-76
2022/07/11 03:52:12;;;;;;;15.23;9.02;;;;;;;17.91;67.21;102302.94;5092605;28;20495;-76
2022/07/11 03:54:37;;;;;;;16.88;8.95;;;;;;;17.85;67.37;102304.03;5093038;28;20050;-75
2022/07/11 03:57:02;;;;;;;16.25;8.63;;;;;;;17.85;67.43;102298.41;5092229;28;20042;-75
2022/07/11 03:59:28;;;;;;;16.33;8.90;;;;;;;17.91;66.96;102307.72;5095038;28;20070;-76
2022/07/11 04:01:53;;;;;;;14.30;8.18;;;;;;;17.86;67.41;102305.72;5091342;28;20499;-75
2022/07/11 04:04:18;;;;;;;12.25;8.63;;;;;;;17.91;67.20;102302.94;5094524;28;20031;-75
2022/07/11 04:06:44;;;;;;;13.75;8.68;;;;;;;17.90;67.20;102298.44;5087703;28;20535;-75
2022/07/11 04:09:10;;;;;;;10.98;8.60;;;;;;;17.88;67.21;102300.69;5094121;28;20048;-74
2022/07/11 04:11:35;;;;;;;13.38;8.82;;;;;;;17.84;67.52;102307.09;5081822;28;20038;-75
2022/07/11 04:14:01;;;;;;;12.88;8.20;;;;;;;17.84;67.48;102304.28;5095145;28;20047;-76
2022/07/11 04:16:26;;;;;;;16.30;9.43;;;;;;;17.80;67.69;102301.19;5088098;28;20052;-76
2022/07/11 04:18:51;;;;;;;13.40;7.93;;;;;;;17.81;67.64;102302.88;5079300;28;20476;-76
2022/07/11 04:21:16;;;;;;;17.98;8.52;;;;;;;17.84;67.73;102296.72;5082794;28;20027;-76
2022/07/11 04:23:42;;;;;;;14.60;8.55;;;;;;;17.81;67.54;102297.25;5087616;28;20028;-75
2022/07/11 04:26:08;;;;;;;13.70;8.30;;;;;;;17.80;67.76;102298.38;5084243;28;20035;-75
2022/07/11 04:28:33;;;;;;;14.70;8.80;;;;;;;17.86;67.71;102305.72;5093613;28;20077;-75
2022/07/11 04:30:58;;;;;;;12.85;8.35;;;;;;;17.86;67.65;102300.09;5091434;28;20063;-75
2022/07/11 04:33:24;;;;;;;13.30;7.97;;;;;;;17.88;67.75;102302.63;5087635;28;20047;-75
2022/07/11 04:35:49;;;;;;;9.88;7.63;;;;;;;17.86;67.87;102291.66;5088009;28;20031;-75
2022/07/11 04:38:14;;;;;;;10.48;8.05;;;;;;;17.85;67.89;102304.03;5078524;28;20107;-75
2022/07/11 04:40:40;;;;;;;10.02;8.07;;;;;;;17.87;67.75;102301.78;5083406;28;20031;-76
2022/07/11 04:43:05;;;;;;;12.07;8.35;;;;;;;17.90;67.70;102304.06;5081323;28;20036;-76
2022/07/11 04:45:30;;;;;;;13.48;7.65;;;;;;;17.86;68.14;102305.72;5092050;28;20078;-75
2022/07/11 04:47:56;;;;;;;13.88;8.45;;;;;;;17.91;67.65;102307.72;5094806;28;20087;-76
2022/07/11 04:50:21;;;;;;;12.32;8.70;;;;;;;17.85;67.82;102315.25;5086802;28;20507;-75
2022/07/11 04:52:46;;;;;;;16.65;8.05;;;;;;;17.89;67.93;102319.22;5093426;28;20473;-76
2022/07/11 04:55:12;;;;;;;12.73;7.75;;;;;;;17.88;67.89;102322.28;5099400;28;20040;-76
2022/07/11 04:57:37;;;;;;;13.98;7.88;;;;;;;17.86;67.98;102311.34;5093671;28;20028;-76
2022/07/11 05:00:03;;;;;;;14.35;7.85;;;;;;;17.91;67.91;102317.00;5092831;28;20120;-75
2022/07/11 05:02:29;;;;;;;12.07;7.40;;;;;;;17.94;67.98;102329.66;5095166;28;20024;-76
2022/07/11 05:04:54;;;;;;;12.90;7.80;;;;;;;17.93;67.82;102330.78;5094474;28;20486;-75
2022/07/11 05:07:19;;;;;;;10.63;7.35;;;;;;;17.91;68.14;102330.19;5091042;28;20020;-76
2022/07/11 05:09:44;;;;;;;12.02;7.30;;;;;;;17.93;68.08;102329.94;5106434;28;20047;-76
2022/07/11 05:12:10;;;;;;;9.80;7.45;;;;;;;17.89;68.12;102338.91;5094102;28;20429;-76
2022/07/11 05:14:35;;;;;;;11.75;7.00;;;;;;;17.93;68.07;102336.41;5090297;28;20019;-75
2022/07/11 05:17:00;;;;;;;11.75;7.10;;;;;;;17.90;68.50;102340.59;5081653;28;20053;-76
2022/07/11 05:19:26;;;;;;;13.15;7.75;;;;;;;17.94;68.54;102326.00;5092268;28;20063;-76
2022/07/11 05:21:51;;;;;;;12.88;7.32;;;;;;;17.90;68.53;102331.31;5079965;28;20498;-75
2022/07/11 05:24:18;;;;;;;10.88;6.95;;;;;;;17.93;68.45;102332.75;5087867;28;20539;-75
2022/07/11 05:26:44;;;;;;;12.68;7.18;;;;;;;17.89;68.87;102346.47;5090744;28;20059;-74
2022/07/11 05:29:10;;;;;;;12.82;6.90;;;;;;;17.93;68.79;102335.56;5093221;28;20024;-74
2022/07/11 05:31:35;;;;;;;12.80;7.25;;;;;;;17.94;68.85;102334.44;5091790;28;20035;-75
2022/07/11 05:34:00;;;;;;;8.32;7.00;;;;;;;17.96;68.91;102337.81;5092351;28;20039;-75
2022/07/11 05:36:25;;;;;;;10.98;7.15;;;;;;;17.96;69.06;102338.69;5083000;28;20028;-74
2022/07/11 05:38:51;;;;;;;10.38;7.00;;;;;;;17.93;69.34;102333.59;5074564;28;20033;-75
2022/07/11 05:41:16;;;;;;;12.18;6.65;;;;;;;17.98;69.22;102339.25;5083624;28;20042;-74
2022/07/11 05:43:41;;;;;;;11.05;7.25;;;;;;;17.97;69.30;102340.38;5091992;28;20059;-74
2022/07/11 05:46:06;;;;;;;11.50;7.25;;;;;;;18.01;69.35;102346.31;5091362;28;20028;-75
2022/07/11 05:48:32;;;;;;;13.20;7.03;;;;;;;18.01;69.37;102343.50;5092293;28;20020;-75
2022/07/11 05:50:57;;;;;;;12.93;7.60;;;;;;;18.02;69.40;102343.22;5088843;28;20028;-75
2022/07/11 05:53:22;;;;;;;11.38;7.05;;;;;;;17.96;69.59;102347.13;5095458;28;20067;-75
2022/07/11 05:55:48;;;;;;;12.18;8.07;;;;;;;18.10;69.17;102348.34;5090597;28;20050;-75
2022/07/11 05:58:13;;;;;;;12.60;7.60;;;;;;;18.05;69.38;102348.31;5088572;28;20035;-75
2022/07/11 06:00:38;;;;;;;9.23;7.22;;;;;;;18.07;69.59;102345.22;5085444;28;20130;-75
2022/07/11 06:03:03;;;;;;;10.43;7.30;;;;;;;18.05;69.65;102347.47;5083581;28;20445;-75
2022/07/11 06:05:28;;;;;;;10.50;7.65;;;;;;;18.13;69.54;102349.78;5093178;28;20046;-75
2022/07/11 06:10:39;;;;;;;8.30;7.00;;;;;;;18.14;69.22;102357.09;5091759;28;20568;-75
2022/07/11 06:13:04;;;;;;;7.90;6.75;;;;;;;18.11;69.40;102360.44;5094440;28;20074;-75
2022/07/11 06:15:29;;;;;;;10.57;7.55;;;;;;;18.17;69.13;102356.56;5096680;28;20491;-73
2022/07/11 06:17:55;;;;;;;3.42;3.05;;;;;;;18.35;65.74;102364.59;5090282;28;20031;-76
2022/07/11 06:20:20;;;;;;;5.53;4.45;;;;;;;18.38;66.94;102369.66;5092561;28;20078;-76
2022/07/11 06:22:45;;;;;;;9.98;6.20;;;;;;;18.39;67.00;102371.38;5079916;28;20040;-76
2022/07/11 06:25:11;;;;;;;8.07;5.18;;;;;;;18.48;66.83;102368.06;5085605;28;20059;-76
2022/07/11 06:27:36;;;;;;;6.32;5.22;;;;;;;18.50;67.26;102372.28;5088466;28;20479;-76
2022/07/11 06:30:03;;;;;;;8.13;5.03;;;;;;;18.54;66.98;102366.97;5095672;28;20050;-75
2022/07/11 06:32:28;;;;;;;6.97;5.93;;;;;;;18.58;67.44;102368.97;5088111;28;20023;-77
2022/07/11 06:34:54;;;;;;;8.20;6.65;;;;;;;18.57;67.43;102364.47;5088169;28;20365;-78
2022/07/11 06:37:19;;;;;;;5.90;5.30;;;;;;;18.63;67.47;102359.75;5092020;28;20077;-77
2022/07/11 06:39:44;;;;;;;10.73;6.20;;;;;;;18.68;67.43;102364.56;5086655;28;20024;-78
2022/07/11 06:42:09;;;;;;;8.73;6.63;;;;;;;18.60;67.51;102372.38;5080284;28;20036;-74
2022/07/11 06:44:35;;;;;;;9.43;6.97;;;;;;;18.62;67.23;102369.28;5100578;28;20035;-72
2022/07/11 06:47:00;;;;;;;7.82;5.15;;;;;;;18.72;67.93;102365.72;5091157;28;20077;-75
2022/07/11 06:49:25;;;;;;;7.53;4.65;;;;;;;18.71;67.44;102373.31;5092083;28;20630;-74
2022/07/11 06:51:50;;;;;;;6.57;5.18;;;;;;;18.72;67.07;102372.19;5082852;28;20038;-70
2022/07/11 06:54:16;;;;;;;6.55;4.05;;;;;;;18.86;67.48;102365.00;5077509;28;20031;-71
2022/07/11 06:56:41;;;;;;;5.88;4.57;;;;;;;18.77;66.57;102354.50;5082450;28;20426;-71
2022/07/11 06:59:07;;;;;;;5.60;4.07;;;;;;;18.84;66.74;102364.41;5084685;28;20471;-73
2022/07/11 07:01:32;;;;;;;5.45;3.60;;;;;;;18.96;66.74;102364.19;5079146;28;20064;-70
2022/07/11 07:03:57;;;;;;;4.80;3.38;;;;;;;18.97;66.74;102365.88;5075054;28;20107;-69
2022/07/11 07:06:22;;;;;;;4.63;3.30;;;;;;;18.98;66.69;102361.97;5091747;28;20078;-70
2022/07/11 07:08:48;;;;;;;4.40;3.10;;;;;;;18.99;66.48;102358.00;5080558;28;20051;-71
2022/07/11 07:11:13;;;;;;;6.30;4.22;;;;;;;18.92;66.14;102356.56;5077610;28;20031;-71
2022/07/11 07:13:38;;;;;;;4.90;4.03;;;;;;;18.95;66.18;102362.50;5083437;28;20032;-73
2022/07/11 07:16:06;;;;;;;5.88;3.45;;;;;;;19.04;66.61;102358.03;5089517;28;20028;-69
2022/07/11 07:18:32;;;;;;;6.82;3.40;;;;;;;19.07;66.38;102359.47;5084568;28;20032;-70
2022/07/11 07:20:57;;;;;;;3.50;3.20;;;;;;;19.09;66.32;102363.69;5094958;28;20028;-70
2022/07/11 07:23:22;;;;;;;4.38;3.67;;;;;;;19.10;66.22;102364.56;5075016;28;20119;-70
2022/07/11 07:25:48;;;;;;;5.15;3.60;;;;;;;19.09;66.12;102352.41;5079839;28;20379;-69
2022/07/11 07:28:13;;;;;;;4.85;3.08;;;;;;;19.13;66.03;102349.91;5085750;28;20032;-69
2022/07/11 07:30:39;;;;;;;6.03;3.60;;;;;;;19.18;65.92;102354.72;5079440;28;20028;-69
2022/07/11 07:33:04;;;;;;;4.53;3.80;;;;;;;19.23;65.79;102352.78;5089808;28;20016;-68
2022/07/11 07:35:29;;;;;;;7.03;3.60;;;;;;;19.27;65.40;102359.56;5088396;28;20093;-71
2022/07/11 07:37:55;;;;;;;4.80;3.80;;;;;;;19.32;65.44;102350.28;5082777;28;20112;-69
2022/07/11 07:40:20;;;;;;;6.57;5.72;;;;;;;19.23;65.23;102352.78;5091380;28;20024;-69
2022/07/11 07:42:45;;;;;;;6.15;4.20;;;;;;;19.30;65.46;102353.38;5079739;28;20442;-69
2022/07/11 07:45:11;;;;;;;7.70;5.50;;;;;;;19.20;64.98;102347.69;5082642;28;20769;-76
2022/07/11 07:47:36;;;;;;;5.47;4.20;;;;;;;19.27;65.07;102353.91;5084761;28;20047;-70
2022/07/11 07:50:04;;;;;;;6.43;3.70;;;;;;;19.41;64.71;102364.66;5077536;28;20451;-72
2022/07/11 07:52:29;;;;;;;4.90;3.55;;;;;;;19.44;64.59;102367.78;5075014;28;20040;-69
2022/07/11 07:54:55;;;;;;;4.40;3.35;;;;;;;19.45;64.40;102354.53;5077502;28;20020;-68
2022/07/11 07:57:20;;;;;;;5.80;4.00;;;;;;;19.52;64.23;102363.56;5085817;28;20479;-69
2022/07/11 07:59:45;;;;;;;4.45;3.78;;;;;;;19.59;64.18;102366.97;5084733;28;20152;-68
2022/07/11 08:02:10;;;;;;;5.32;4.82;;;;;;;19.49;64.06;102361.31;5088196;28;20028;-68
2022/07/11 08:04:36;;;;;;;5.70;4.82;;;;;;;19.48;64.03;102366.09;5079653;28;20089;-69
2022/07/11 08:07:02;;;;;;;7.38;4.18;;;;;;;19.59;64.13;102375.44;5081814;28;20028;-68
2022/07/11 08:09:27;;;;;;;5.10;3.78;;;;;;;19.62;63.46;102372.09;5072159;28;20411;-68
2022/07/11 08:11:52;;;;;;;6.78;5.45;;;;;;;19.53;64.03;102373.72;5087574;28;20110;-69
2022/07/11 08:14:18;;;;;;;8.23;4.47;;;;;;;19.65;63.60;102371.56;5080802;28;20164;-69
2022/07/11 08:16:44;;;;;;;5.90;3.75;;;;;;;19.64;63.53;102372.66;5089518;28;20035;-69
2022/07/11 08:19:11;;;;;;;5.07;4.40;;;;;;;19.66;63.31;102369.56;5090489;28;20028;-69
2022/07/11 08:21:36;;;;;;;5.50;4.60;;;;;;;19.64;63.51;102372.66;5107097;28;20078;-69
2022/07/11 08:24:03;;;;;;;4.22;3.83;;;;;;;19.67;63.24;102371.25;5090602;28;20016;-69
2022/07/11 08:26:28;;;;;;;6.78;4.80;;;;;;;19.61;63.56;102376.88;5095225;28;20096;-69
2022/07/11 08:28:54;;;;;;;4.90;3.90;;;;;;;19.64;63.50;102369.84;5095702;28;20028;-69
2022/07/11 08:31:19;;;;;;;5.18;3.83;;;;;;;19.72;63.28;102377.75;5094272;28;20020;-69
2022/07/11 08:33:46;;;;;;;5.10;4.00;;;;;;;19.72;62.86;102365.63;5094690;28;20107;-69
2022/07/11 08:36:11;;;;;;;4.05;3.60;;;;;;;19.71;62.86;102386.47;5099969;28;20024;-69
2022/07/11 08:38:37;;;;;;;5.15;4.22;;;;;;;19.72;62.76;102366.47;5093881;28;20463;-69
2022/07/11 08:41:03;;;;;;;4.13;3.58;;;;;;;19.71;63.24;102370.41;5095472;28;20383;-69
2022/07/11 08:43:29;;;;;;;4.43;4.00;;;;;;;19.73;63.07;102370.13;5094563;28;20459;-69
2022/07/11 08:45:55;;;;;;;5.45;4.10;;;;;;;19.74;63.02;102369.88;5093449;28;20024;-69
2022/07/11 08:48:21;;;;;;;3.85;3.50;;;;;;;19.73;63.14;102368.19;5094742;28;20099;-69
2022/07/11 08:50:46;;;;;;;6.18;4.70;;;;;;;19.70;63.49;102367.91;5094678;28;20034;-69
2022/07/11 08:53:12;;;;;;;5.35;4.85;;;;;;;19.67;63.62;102377.75;5092906;28;20479;-69
2022/07/11 08:55:38;;;;;;;5.57;4.20;;;;;;;19.73;63.13;102367.31;5101861;28;20036;-69
2022/07/11 08:58:03;;;;;;;8.50;4.72;;;;;;;19.76;63.30;102372.41;5092675;28;20489;-69
2022/07/11 09:00:28;;;;;;;5.40;4.40;;;;;;;19.79;63.08;102374.66;5085834;28;20099;-69
2022/07/11 09:02:54;;;;;;;5.00;4.50;;;;;;;19.82;63.07;102374.97;5094513;28;20038;-69
2022/07/11 09:05:19;;;;;;;5.47;4.47;;;;;;;19.84;63.09;102367.06;5093743;28;20028;-69
2022/07/11 09:07:47;;;;;;;6.60;5.95;;;;;;;19.79;63.32;102367.06;5094543;28;20024;-69
2022/07/11 09:10:14;;;;;;;5.47;4.78;;;;;;;19.90;62.97;102367.09;5081091;28;20040;-69
2022/07/11 09:12:59;;;;;;;7.90;6.20;;;;;;;19.91;63.25;102365.94;5078304;28;20116;-69
2022/07/11 09:15:50;;;;;;;7.80;6.13;;;;;;;19.94;63.18;102362.59;5090387;28;20036;-69
2022/07/11 09:18:25;;;;;;;8.90;5.37;;;;;;;19.96;62.77;102366.78;5080820;28;20059;-69
2022/07/11 09:26:38;;;;;;;9.13;6.93;;;;;;;20.08;62.76;102358.06;5065431;28;20044;-69
2022/07/11 09:29:06;;;;;;;6.88;5.90;;;;;;;20.18;62.45;102363.72;5072647;28;20078;-69
2022/07/11 09:31:33;;;;;;;7.85;6.10;;;;;;;20.23;62.68;102360.91;5089342;28;20059;-69
2022/07/11 09:34:01;;;;;;;9.43;6.80;;;;;;;20.24;62.69;102353.28;5081846;28;20024;-69
2022/07/11 09:36:40;;;;;;;10.18;7.13;;;;;;;20.27;62.54;102355.53;5081321;28;20085;-69
2022/07/11 09:39:16;;;;;;;10.07;7.28;;;;;;;20.30;62.11;102358.66;5088337;28;20418;-69
2022/07/11 09:41:43;;;;;;;9.60;7.82;;;;;;;20.25;62.28;102353.03;5075678;28;20024;-69
2022/07/11 09:44:14;;;;;;;10.43;7.28;;;;;;;20.24;62.14;102356.97;5083278;28;20043;-69
2022/07/11 09:46:42;;;;;;;12.07;7.85;;;;;;;20.24;62.41;102356.09;5080406;28;20044;-69
2022/07/11 09:49:07;;;;;;;12.98;7.60;;;;;;;20.24;62.48;102351.34;5090246;28;20031;-69
2022/07/11 09:51:35;;;;;;;11.85;7.85;;;;;;;20.22;62.32;102364.84;5077343;28;20024;-69
2022/07/11 09:54:04;;;;;;;8.55;7.25;;;;;;;20.24;62.33;102359.78;5086284;28;20028;-69
2022/07/11 09:56:34;;;;;;;9.75;8.02;;;;;;;20.22;62.51;102364.84;5082927;28;20476;-69
2022/07/11 09:59:03;;;;;;;9.85;6.80;;;;;;;20.25;62.58;102360.63;5077730;28;20472;-69
2022/07/11 10:01:29;;;;;;;10.00;8.93;;;;;;;20.16;63.18;102359.47;5056145;28;20013;-69
2022/07/11 10:03:55;;;;;;;8.57;7.63;;;;;;;20.21;62.36;102360.34;5080109;28;20402;-69
2022/07/11 10:06:22;;;;;;;10.68;8.98;;;;;;;20.11;63.36;102355.53;5082117;28;20082;-69
2022/07/11 10:08:51;;;;;;;8.82;7.05;;;;;;;20.23;62.83;102366.53;5086996;28;20044;-69
2022/07/11 10:11:16;;;;;;;8.93;7.38;;;;;;;20.19;62.87;102361.75;5098109;28;20100;-69
2022/07/11 10:13:42;;;;;;;9.63;7.68;;;;;;;20.22;62.68;102364.00;5095429;28;20036;-69
2022/07/11 10:16:36;;;;;;;10.35;8.05;;;;;;;20.14;63.07;102361.75;5099003;28;20058;-69
2022/07/11 10:19:24;;;;;;;9.52;6.60;;;;;;;20.24;62.88;102356.97;5072381;28;20036;-69
2022/07/11 10:22:14;;;;;;;8.32;6.70;;;;;;;20.26;62.81;102362.31;5072217;28;20025;-69
2022/07/11 10:24:55;;;;;;;11.18;7.40;;;;;;;20.32;62.48;102359.22;5071165;28;20078;-69
2022/07/11 10:27:36;;;;;;;10.43;7.25;;;;;;;20.29;62.65;102365.41;5072048;28;20072;-69
2022/07/11 10:30:02;;;;;;;10.93;7.50;;;;;;;20.32;62.92;102359.22;5072066;28;20420;-69
2022/07/11 10:32:28;;;;;;;11.70;7.22;;;;;;;20.39;62.83;102369.34;5070631;28;20025;-70
2022/07/11 10:35:10;;;;;;;7.70;6.90;;;;;;;20.39;62.56;102370.19;5071561;28;20020;-68
2022/07/11 10:37:50;;;;;;;7.47;5.90;;;;;;;20.46;62.52;102378.38;5099031;28;20576;-68
2022/07/11 10:40:46;;;;;;;9.55;6.80;;;;;;;20.50;62.36;102374.75;5104205;28;20032;-69
2022/07/11 10:43:14;;;;;;;7.60;6.45;;;;;;;20.51;62.57;102379.25;5077582;28;20448;-70
2022/07/11 10:45:59;;;;;;;8.95;6.63;;;;;;;20.49;62.27;102375.88;5089561;28;20020;-69
2022/07/11 10:48:27;;;;;;;8.35;5.97;;;;;;;20.54;61.92;102375.03;5076496;28;20024;-71
2022/07/11 10:51:11;;;;;;;10.57;5.93;;;;;;;20.59;61.90;102370.25;5091805;28;20032;-71
2022/07/11 10:53:44;;;;;;;10.32;7.15;;;;;;;20.55;62.84;102379.53;5092525;28;20143;-71
2022/07/11 10:56:20;;;;;;;11.68;7.25;;;;;;;20.58;62.18;102376.16;5093693;28;20027;-71
2022/07/11 10:59:00;;;;;;;7.97;6.95;;;;;;;20.57;62.24;102375.31;5092181;28;20111;-71
2022/07/11 11:01:27;;;;;;;7.40;5.55;;;;;;;20.65;62.17;102381.50;5092476;28;20055;-71
2022/07/11 11:04:31;;;;;;;6.97;5.80;;;;;;;20.66;61.87;102372.75;5091864;28;20066;-70
2022/07/11 11:06:57;;;;;;;6.85;5.00;;;;;;;20.67;61.69;102374.47;5091580;28;20040;-71
2022/07/11 11:09:37;;;;;;;7.07;5.00;;;;;;;20.65;61.91;102373.88;5092411;28;20062;-71
2022/07/11 11:12:03;;;;;;;5.80;5.05;;;;;;;20.64;61.71;102377.00;5098881;28;20073;-72
2022/07/11 11:14:28;;;;;;;5.68;4.70;;;;;;;20.58;62.17;102378.97;5099720;28;20036;-71
2022/07/11 11:16:54;;;;;;;6.38;5.20;;;;;;;20.51;62.13;102378.41;5092327;28;20464;-71
2022/07/11 11:19:44;;;;;;;5.10;4.22;;;;;;;20.57;62.17;102378.13;5091998;28;20432;-71
2022/07/11 11:22:14;;;;;;;5.97;5.03;;;;;;;20.57;62.16;102380.09;5094021;28;20387;-71
2022/07/11 11:24:40;;;;;;;5.10;4.60;;;;;;;20.61;62.01;102386.88;5083389;28;20510;-72
2022/07/11 11:27:33;;;;;;;7.80;4.90;;;;;;;20.61;61.99;102383.22;5095820;28;20032;-67
2022/07/11 11:29:58;;;;;;;7.20;4.60;;;;;;;20.65;62.22;102382.34;5087879;28;20024;-68
2022/07/11 11:32:30;;;;;;;5.88;3.75;;;;;;;20.75;61.62;102388.00;5083659;28;20582;-68